sensor_id;sensor_type;location;lat;lon;timestamp;pressure;altitude;pressure_sealevel;temperature;humidity
40992;BME280;29633;49.168;9.848;2023-04-15T00:00:52;95883.38;;;11.60;60.73
40992;BME280;29633;49.168;9.848;2023-04-15T00:03:19;95878.84;;;11.62;60.75
40992;BME280;29633;49.168;9.848;2023-04-15T00:05:44;95881.63;;;11.61;60.86
40992;BME280;29633;49.168;9.848;2023-04-15T00:08:10;95883.38;;;11.60;60.79
40992;BME280;29633;49.168;9.848;2023-04-15T00:10:37;95884.03;;;11.62;60.98
40992;BME280;29633;49.168;9.848;2023-04-15T00:13:02;95880.13;;;11.58;60.77
40992;BME280;29633;49.168;9.848;2023-04-15T00:15:28;95880.28;;;11.57;60.67
40992;BME280;29633;49.168;9.848;2023-04-15T00:17:54;95876.88;;;11.56;60.70
40992;BME280;29633;49.168;9.848;2023-04-15T00:20:20;95880.41;;;11.55;60.98
40992;BME280;29633;49.168;9.848;2023-04-15T00:22:45;95883.19;;;11.54;60.96
40992;BME280;29633;49.168;9.848;2023-04-15T00:25:11;95886.88;;;11.51;61.05
40992;BME280;29633;49.168;9.848;2023-04-15T00:27:37;95882.94;;;11.47;60.76
40992;BME280;29633;49.168;9.848;2023-04-15T00:30:03;95888.44;;;11.44;60.96
40992;BME280;29633;49.168;9.848;2023-04-15T00:32:29;95877.84;;;11.38;61.24
40992;BME280;29633;49.168;9.848;2023-04-15T00:34:55;95875.88;;;11.31;61.02
40992;BME280;29633;49.168;9.848;2023-04-15T00:37:21;95878.75;;;11.28;61.05
40992;BME280;29633;49.168;9.848;2023-04-15T00:39:47;95875.47;;;11.26;61.14
40992;BME280;29633;49.168;9.848;2023-04-15T00:42:16;95879.84;;;11.26;60.90
40992;BME280;29633;49.168;9.848;2023-04-15T00:44:42;95874.84;;;11.24;60.90
40992;BME280;29633;49.168;9.848;2023-04-15T00:47:08;95872.50;;;11.21;61.23
40992;BME280;29633;49.168;9.848;2023-04-15T00:49:34;95874.00;;;11.24;61.30
40992;BME280;29633;49.168;9.848;2023-04-15T00:51:59;95861.69;;;11.26;61.15
40992;BME280;29633;49.168;9.848;2023-04-15T00:54:25;95864.97;;;11.28;61.22
40992;BME280;29633;49.168;9.848;2023-04-15T00:56:51;95867.41;;;11.29;61.11
40992;BME280;29633;49.168;9.848;2023-04-15T00:59:16;95864.97;;;11.28;61.09
40992;BME280;29633;49.168;9.848;2023-04-15T01:01:42;95869.47;;;11.26;61.14
40992;BME280;29633;49.168;9.848;2023-04-15T01:04:09;95866.75;;;11.27;61.12
40992;BME280;29633;49.168;9.848;2023-04-15T01:06:35;95876.81;;;11.30;61.02
40992;BME280;29633;49.168;9.848;2023-04-15T01:09:03;95876.81;;;11.30;61.00
40992;BME280;29633;49.168;9.848;2023-04-15T01:11:29;95875.69;;;11.33;61.10
40992;BME280;29633;49.168;9.848;2023-04-15T01:13:58;95876.50;;;11.33;61.13
40992;BME280;29633;49.168;9.848;2023-04-15T01:16:23;95866.44;;;11.30;61.06
40992;BME280;29633;49.168;9.848;2023-04-15T01:18:49;95864.28;;;11.26;61.26
40992;BME280;29633;49.168;9.848;2023-04-15T01:21:15;95864.59;;;11.23;60.87
40992;BME280;29633;49.168;9.848;2023-04-15T01:23:43;95866.53;;;11.21;61.28
40992;BME280;29633;49.168;9.848;2023-04-15T01:26:09;95862.31;;;11.20;61.08
40992;BME280;29633;49.168;9.848;2023-04-15T01:28:36;95863.84;;;11.13;61.11
40992;BME280;29633;49.168;9.848;2023-04-15T01:33:34;95867.28;;;11.13;61.04
40992;BME280;29633;49.168;9.848;2023-04-15T01:35:59;95858.97;;;11.10;61.16
40992;BME280;29633;49.168;9.848;2023-04-15T01:38:26;95862.38;;;11.10;61.46
40992;BME280;29633;49.168;9.848;2023-04-15T01:40:52;95861.41;;;11.11;61.19
40992;BME280;29633;49.168;9.848;2023-04-15T01:43:18;95866.88;;;11.08;61.07
40992;BME280;29633;49.168;9.848;2023-04-15T01:45:44;95870.75;;;11.04;61.30
40992;BME280;29633;49.168;9.848;2023-04-15T01:48:10;95863.25;;;11.01;61.31
40992;BME280;29633;49.168;9.848;2023-04-15T01:50:36;95859.84;;;11.01;61.11
40992;BME280;29633;49.168;9.848;2023-04-15T01:53:02;95870.53;;;10.98;61.42
40992;BME280;29633;49.168;9.848;2023-04-15T01:55:28;95869.03;;;10.95;61.22
40992;BME280;29633;49.168;9.848;2023-04-15T01:57:54;95865.13;;;10.91;61.29
40992;BME280;29633;49.168;9.848;2023-04-15T02:00:20;95862.00;;;10.88;61.26
40992;BME280;29633;49.168;9.848;2023-04-15T02:02:47;95864.59;;;10.88;61.15
40992;BME280;29633;49.168;9.848;2023-04-15T02:05:13;95864.72;;;10.86;60.99
40992;BME280;29633;49.168;9.848;2023-04-15T02:07:38;95864.91;;;10.84;61.20
40992;BME280;29633;49.168;9.848;2023-04-15T02:10:04;95859.84;;;10.83;61.46
40992;BME280;29633;49.168;9.848;2023-04-15T02:12:30;95857.25;;;10.83;61.43
40992;BME280;29633;49.168;9.848;2023-04-15T02:14:56;95857.13;;;10.84;61.25
40992;BME280;29633;49.168;9.848;2023-04-15T02:17:21;95852.06;;;10.83;61.32
40992;BME280;29633;49.168;9.848;2023-04-15T02:19:47;95849.34;;;10.84;61.35
40992;BME280;29633;49.168;9.848;2023-04-15T02:22:13;95836.81;;;10.80;61.48
40992;BME280;29633;49.168;9.848;2023-04-15T02:24:43;95849.91;;;10.78;61.58
40992;BME280;29633;49.168;9.848;2023-04-15T02:27:08;95852.50;;;10.78;61.44
40992;BME280;29633;49.168;9.848;2023-04-15T02:29:34;95844.06;;;10.76;61.51
40992;BME280;29633;49.168;9.848;2023-04-15T02:32:00;95848.56;;;10.74;61.61
40992;BME280;29633;49.168;9.848;2023-04-15T02:34:25;95840.44;;;10.69;61.58
40992;BME280;29633;49.168;9.848;2023-04-15T02:36:51;95841.09;;;10.71;61.46
40992;BME280;29633;49.168;9.848;2023-04-15T02:39:21;95837.16;;;10.67;61.78
40992;BME280;29633;49.168;9.848;2023-04-15T02:41:47;95843.69;;;10.71;61.69
40992;BME280;29633;49.168;9.848;2023-04-15T02:44:16;95838.66;;;10.70;61.67
40992;BME280;29633;49.168;9.848;2023-04-15T02:46:45;95842.06;;;10.70;61.68
40992;BME280;29633;49.168;9.848;2023-04-15T02:49:17;95841.09;;;10.71;61.65
40992;BME280;29633;49.168;9.848;2023-04-15T02:51:43;95844.38;;;10.73;61.69
40992;BME280;29633;49.168;9.848;2023-04-15T02:54:12;95842.06;;;10.70;61.64
40992;BME280;29633;49.168;9.848;2023-04-15T02:56:37;95849.16;;;10.68;61.64
40992;BME280;29633;49.168;9.848;2023-04-15T02:59:03;95847.91;;;10.72;61.52
40992;BME280;29633;49.168;9.848;2023-04-15T03:01:29;95843.03;;;10.69;61.60
40992;BME280;29633;49.168;9.848;2023-04-15T03:03:54;95844.78;;;10.69;61.84
40992;BME280;29633;49.168;9.848;2023-04-15T03:06:20;95847.91;;;10.72;61.72
40992;BME280;29633;49.168;9.848;2023-04-15T03:08:46;95845.84;;;10.76;61.67
40992;BME280;29633;49.168;9.848;2023-04-15T03:11:13;95855.59;;;10.82;61.65
40992;BME280;29633;49.168;9.848;2023-04-15T03:13:39;95855.19;;;10.86;61.73
40992;BME280;29633;49.168;9.848;2023-04-15T03:16:06;95854.22;;;10.88;61.43
40992;BME280;29633;49.168;9.848;2023-04-15T03:18:32;95859.25;;;10.89;61.57
40992;BME280;29633;49.168;9.848;2023-04-15T03:20:57;95859.09;;;10.91;61.59
40992;BME280;29633;49.168;9.848;2023-04-15T03:23:23;95848.75;;;10.91;61.58
40992;BME280;29633;49.168;9.848;2023-04-15T03:25:49;95847.91;;;10.90;61.54
40992;BME280;29633;49.168;9.848;2023-04-15T03:28:15;95852.28;;;10.90;61.57
40992;BME280;29633;49.168;9.848;2023-04-15T03:30:40;95845.09;;;10.83;61.89
40992;BME280;29633;49.168;9.848;2023-04-15T03:33:06;95845.91;;;10.84;61.78
40992;BME280;29633;49.168;9.848;2023-04-15T03:35:33;95845.75;;;10.85;61.67
40992;BME280;29633;49.168;9.848;2023-04-15T03:37:59;95847.56;;;10.85;61.64
40992;BME280;29633;49.168;9.848;2023-04-15T03:40:25;95849.16;;;10.86;61.68
40992;BME280;29633;49.168;9.848;2023-04-15T03:42:51;95846.28;;;10.89;61.53
40992;BME280;29633;49.168;9.848;2023-04-15T03:45:16;95846.56;;;10.86;61.65
40992;BME280;29633;49.168;9.848;2023-04-15T03:47:42;95844.16;;;10.84;61.73
40992;BME280;29633;49.168;9.848;2023-04-15T03:50:08;95849.34;;;10.84;61.62
40992;BME280;29633;49.168;9.848;2023-04-15T03:52:34;95843.34;;;10.84;61.78
40992;BME280;29633;49.168;9.848;2023-04-15T03:54:59;95849.03;;;10.88;61.57
40992;BME280;29633;49.168;9.848;2023-04-15T03:57:26;95849.03;;;10.88;61.75
40992;BME280;29633;49.168;9.848;2023-04-15T03:59:51;95845.75;;;10.85;61.84
40992;BME280;29633;49.168;9.848;2023-04-15T04:02:17;95845.75;;;10.85;61.62
40992;BME280;29633;49.168;9.848;2023-04-15T04:04:43;95841.38;;;10.86;61.72
40992;BME280;29633;49.168;9.848;2023-04-15T04:07:16;95840.56;;;10.85;61.88
40992;BME280;29633;49.168;9.848;2023-04-15T04:09:42;95844.50;;;10.90;61.79
40992;BME280;29633;49.168;9.848;2023-04-15T04:12:08;95841.91;;;10.90;61.73
40992;BME280;29633;49.168;9.848;2023-04-15T04:14:33;95847.41;;;10.86;61.66
40992;BME280;29633;49.168;9.848;2023-04-15T04:16:59;95847.41;;;10.86;61.69
40992;BME280;29633;49.168;9.848;2023-04-15T04:19:25;95849.84;;;10.88;61.90
40992;BME280;29633;49.168;9.848;2023-04-15T04:21:51;95849.03;;;10.88;61.88
40992;BME280;29633;49.168;9.848;2023-04-15T04:24:17;95849.69;;;10.90;61.81
40992;BME280;29633;49.168;9.848;2023-04-15T04:26:43;95847.25;;;10.88;61.65
40992;BME280;29633;49.168;9.848;2023-04-15T04:29:08;95846.16;;;10.91;61.80
40992;BME280;29633;49.168;9.848;2023-04-15T04:31:34;95847.63;;;10.93;61.91
40992;BME280;29633;49.168;9.848;2023-04-15T04:34:00;95851.53;;;10.97;61.71
40992;BME280;29633;49.168;9.848;2023-04-15T04:36:25;95845.41;;;10.98;61.75
40992;BME280;29633;49.168;9.848;2023-04-15T04:38:51;95846.06;;;11.00;61.75
40992;BME280;29633;49.168;9.848;2023-04-15T04:41:17;95845.09;;;11.01;61.64
40992;BME280;29633;49.168;9.848;2023-04-15T04:43:42;95849.63;;;10.99;61.68
40992;BME280;29633;49.168;9.848;2023-04-15T04:46:08;95848.66;;;11.00;61.70
40992;BME280;29633;49.168;9.848;2023-04-15T04:48:34;95850.28;;;11.01;61.62
40992;BME280;29633;49.168;9.848;2023-04-15T04:51:00;95852.06;;;11.01;61.74
40992;BME280;29633;49.168;9.848;2023-04-15T04:53:26;95853.84;;;11.00;61.72
40992;BME280;29633;49.168;9.848;2023-04-15T04:55:52;95850.44;;;11.00;61.88
40992;BME280;29633;49.168;9.848;2023-04-15T04:58:18;95849.63;;;10.99;61.80
40992;BME280;29633;49.168;9.848;2023-04-15T05:00:44;95854.97;;;10.98;61.78
40992;BME280;29633;49.168;9.848;2023-04-15T05:03:09;95858.38;;;10.98;61.77
40992;BME280;29633;49.168;9.848;2023-04-15T05:05:35;95855.78;;;10.98;61.69
40992;BME280;29633;49.168;9.848;2023-04-15T05:08:04;95856.59;;;10.99;61.88
40992;BME280;29633;49.168;9.848;2023-04-15T05:10:30;95846.88;;;11.01;61.75
40992;BME280;29633;49.168;9.848;2023-04-15T05:12:56;95846.88;;;11.01;61.93
40992;BME280;29633;49.168;9.848;2023-04-15T05:15:22;95852.44;;;11.06;61.91
40992;BME280;29633;49.168;9.848;2023-04-15T05:17:47;95845.31;;;11.08;61.77
40992;BME280;29633;49.168;9.848;2023-04-15T05:22:41;95846.81;;;11.10;62.01
40992;BME280;29633;49.168;9.848;2023-04-15T05:25:07;95850.72;;;11.14;61.88
40992;BME280;29633;49.168;9.848;2023-04-15T05:27:33;95852.22;;;11.17;61.46
40992;BME280;29633;49.168;9.848;2023-04-15T05:29:59;95846.72;;;11.20;62.01
40992;BME280;29633;49.168;9.848;2023-04-15T05:32:24;95852.56;;;11.22;62.00
40992;BME280;29633;49.168;9.848;2023-04-15T05:34:50;95848.41;;;11.29;62.01
40992;BME280;29633;49.168;9.848;2023-04-15T05:37:16;95856.72;;;11.32;62.03
40992;BME280;29633;49.168;9.848;2023-04-15T05:39:42;95850.13;;;11.38;61.93
40992;BME280;29633;49.168;9.848;2023-04-15T05:42:07;95861.16;;;11.40;61.85
40992;BME280;29633;49.168;9.848;2023-04-15T05:44:33;95862.78;;;11.41;62.33
40992;BME280;29633;49.168;9.848;2023-04-15T05:46:59;95868.72;;;11.33;61.92
40992;BME280;29633;49.168;9.848;2023-04-15T05:49:25;95865.94;;;11.27;62.17
40992;BME280;29633;49.168;9.848;2023-04-15T05:51:50;95871.41;;;11.24;62.25
40992;BME280;29633;49.168;9.848;2023-04-15T05:54:16;95872.38;;;11.23;62.31
40992;BME280;29633;49.168;9.848;2023-04-15T05:56:43;95873.72;;;11.27;62.32
40992;BME280;29633;49.168;9.848;2023-04-15T05:59:08;95874.34;;;11.29;62.26
40992;BME280;29633;49.168;9.848;2023-04-15T06:01:34;95877.47;;;11.32;62.14
40992;BME280;29633;49.168;9.848;2023-04-15T06:04:00;95879.78;;;11.35;62.30
40992;BME280;29633;49.168;9.848;2023-04-15T06:06:26;95878.16;;;11.34;62.27
40992;BME280;29633;49.168;9.848;2023-04-15T06:08:52;95878.97;;;11.35;62.26
40992;BME280;29633;49.168;9.848;2023-04-15T06:11:21;95875.69;;;11.33;62.17
40992;BME280;29633;49.168;9.848;2023-04-15T06:13:46;95870.50;;;11.33;62.25
40992;BME280;29633;49.168;9.848;2023-04-15T06:16:12;95868.72;;;11.33;62.22
40992;BME280;29633;49.168;9.848;2023-04-15T06:18:38;95866.97;;;11.34;62.46
40992;BME280;29633;49.168;9.848;2023-04-15T06:21:03;95874.59;;;11.35;62.17
40992;BME280;29633;49.168;9.848;2023-04-15T06:23:29;95875.38;;;11.36;62.37
40992;BME280;29633;49.168;9.848;2023-04-15T06:25:55;95878.66;;;11.38;62.40
40992;BME280;29633;49.168;9.848;2023-04-15T06:28:20;95876.22;;;11.36;62.42
40992;BME280;29633;49.168;9.848;2023-04-15T06:30:46;95879.19;;;11.42;62.48
40992;BME280;29633;49.168;9.848;2023-04-15T06:33:14;95876.41;;;11.43;62.56
40992;BME280;29633;49.168;9.848;2023-04-15T06:35:39;95874.34;;;11.47;62.46
40992;BME280;29633;49.168;9.848;2023-04-15T06:38:05;95880.34;;;11.47;62.73
40992;BME280;29633;49.168;9.848;2023-04-15T06:40:31;95884.59;;;11.48;62.20
40992;BME280;29633;49.168;9.848;2023-04-15T06:42:57;95878.56;;;11.48;62.54
40992;BME280;29633;49.168;9.848;2023-04-15T06:45:22;95884.59;;;11.48;62.68
40992;BME280;29633;49.168;9.848;2023-04-15T06:47:48;95888.22;;;11.55;62.62
40992;BME280;29633;49.168;9.848;2023-04-15T06:50:13;95887.44;;;11.63;62.49
40992;BME280;29633;49.168;9.848;2023-04-15T06:52:39;95896.72;;;11.65;62.70
40992;BME280;29633;49.168;9.848;2023-04-15T06:55:05;95887.00;;;11.67;62.44
40992;BME280;29633;49.168;9.848;2023-04-15T06:57:32;95884.66;;;11.74;62.36
40992;BME280;29633;49.168;9.848;2023-04-15T06:59:57;95891.00;;;11.79;62.52
40992;BME280;29633;49.168;9.848;2023-04-15T07:02:23;95884.22;;;11.87;62.44
40992;BME280;29633;49.168;9.848;2023-04-15T07:04:49;95896.63;;;11.93;62.42
40992;BME280;29633;49.168;9.848;2023-04-15T07:07:15;95887.69;;;11.95;62.52
40992;BME280;29633;49.168;9.848;2023-04-15T07:09:42;95889.03;;;11.99;62.46
40992;BME280;29633;49.168;9.848;2023-04-15T07:12:07;95887.91;;;12.02;62.63
40992;BME280;29633;49.168;9.848;2023-04-15T07:14:33;95884.19;;;12.04;62.58
40992;BME280;29633;49.168;9.848;2023-04-15T07:16:59;95884.72;;;12.08;62.64
40992;BME280;29633;49.168;9.848;2023-04-15T07:19:25;95881.34;;;12.15;62.62
40992;BME280;29633;49.168;9.848;2023-04-15T07:21:50;95881.69;;;12.20;62.61
40992;BME280;29633;49.168;9.848;2023-04-15T07:24:16;95878.63;;;12.25;62.63
40992;BME280;29633;49.168;9.848;2023-04-15T07:26:44;95882.22;;;12.32;62.78
40992;BME280;29633;49.168;9.848;2023-04-15T07:29:10;95883.22;;;12.39;62.76
40992;BME280;29633;49.168;9.848;2023-04-15T07:31:35;95885.88;;;12.47;62.72
40992;BME280;29633;49.168;9.848;2023-04-15T07:34:02;95885.88;;;12.55;62.76
40992;BME280;29633;49.168;9.848;2023-04-15T07:36:28;95881.84;;;12.61;62.89
40992;BME280;29633;49.168;9.848;2023-04-15T07:38:54;95879.75;;;12.64;62.64
40992;BME280;29633;49.168;9.848;2023-04-15T07:41:20;95886.59;;;12.73;62.86
40992;BME280;29633;49.168;9.848;2023-04-15T07:43:46;95885.81;;;12.81;62.73
40992;BME280;29633;49.168;9.848;2023-04-15T07:46:13;95883.56;;;12.86;62.91
40992;BME280;29633;49.168;9.848;2023-04-15T07:48:39;95887.31;;;12.92;62.83
40992;BME280;29633;49.168;9.848;2023-04-15T07:51:05;95883.25;;;12.97;62.91
40992;BME280;29633;49.168;9.848;2023-04-15T07:53:31;95883.44;;;13.04;62.86
40992;BME280;29633;49.168;9.848;2023-04-15T07:55:57;95881.53;;;13.14;62.80
40992;BME280;29633;49.168;9.848;2023-04-15T07:58:23;95885.44;;;13.26;62.85
40992;BME280;29633;49.168;9.848;2023-04-15T08:00:49;95888.72;;;13.36;62.59
40992;BME280;29633;49.168;9.848;2023-04-15T08:03:15;95883.50;;;13.44;62.45
40992;BME280;29633;49.168;9.848;2023-04-15T08:05:41;95881.75;;;13.53;62.56
40992;BME280;29633;49.168;9.848;2023-04-15T08:08:07;95881.72;;;13.61;62.56
40992;BME280;29633;49.168;9.848;2023-04-15T08:10:33;95882.06;;;13.66;62.65
40992;BME280;29633;49.168;9.848;2023-04-15T08:12:58;95883.16;;;13.71;62.51
40992;BME280;29633;49.168;9.848;2023-04-15T08:15:25;95886.75;;;13.78;62.43
40992;BME280;29633;49.168;9.848;2023-04-15T08:17:51;95891.66;;;13.82;62.54
40992;BME280;29633;49.168;9.848;2023-04-15T08:20:17;95887.72;;;13.86;62.50
40992;BME280;29633;49.168;9.848;2023-04-15T08:22:43;95883.00;;;13.89;62.39
40992;BME280;29633;49.168;9.848;2023-04-15T08:25:09;95889.84;;;13.90;62.60
40992;BME280;29633;49.168;9.848;2023-04-15T08:27:35;95889.69;;;13.92;62.46
40992;BME280;29633;49.168;9.848;2023-04-15T08:30:01;95895.84;;;13.91;62.67
40992;BME280;29633;49.168;9.848;2023-04-15T08:32:26;95892.44;;;13.90;62.67
40992;BME280;29633;49.168;9.848;2023-04-15T08:34:52;95899.63;;;13.88;62.74
40992;BME280;29633;49.168;9.848;2023-04-15T08:37:18;95892.44;;;13.90;62.64
40992;BME280;29633;49.168;9.848;2023-04-15T08:39:44;95887.06;;;13.92;62.79
40992;BME280;29633;49.168;9.848;2023-04-15T08:42:13;95887.38;;;13.97;62.62
40992;BME280;29633;49.168;9.848;2023-04-15T08:44:40;95895.53;;;14.02;62.73
40992;BME280;29633;49.168;9.848;2023-04-15T08:47:07;95892.91;;;14.10;62.63
40992;BME280;29633;49.168;9.848;2023-04-15T08:49:35;95898.41;;;14.15;62.51
40992;BME280;29633;49.168;9.848;2023-04-15T08:52:03;95891.59;;;14.14;62.45
40992;BME280;29633;49.168;9.848;2023-04-15T08:54:30;95894.34;;;14.20;62.54
40992;BME280;29633;49.168;9.848;2023-04-15T08:56:57;95893.66;;;14.26;62.67
40992;BME280;29633;49.168;9.848;2023-04-15T08:59:23;95894.50;;;14.35;62.59
40992;BME280;29633;49.168;9.848;2023-04-15T09:01:49;95896.63;;;14.40;62.50
40992;BME280;29633;49.168;9.848;2023-04-15T09:04:16;95892.16;;;14.48;62.31
40992;BME280;29633;49.168;9.848;2023-04-15T09:06:41;95897.69;;;14.53;62.35
40992;BME280;29633;49.168;9.848;2023-04-15T09:09:07;95896.69;;;14.62;62.40
40992;BME280;29633;49.168;9.848;2023-04-15T09:11:33;95896.50;;;14.72;62.16
40992;BME280;29633;49.168;9.848;2023-04-15T09:13:59;95897.09;;;14.82;62.30
40992;BME280;29633;49.168;9.848;2023-04-15T09:16:24;95896.25;;;14.90;62.38
40992;BME280;29633;49.168;9.848;2023-04-15T09:18:50;95894.56;;;14.97;62.22
40992;BME280;29633;49.168;9.848;2023-04-15T09:21:16;95901.06;;;15.01;62.14
40992;BME280;29633;49.168;9.848;2023-04-15T09:23:59;95897.94;;;15.05;62.17
40992;BME280;29633;49.168;9.848;2023-04-15T09:26:37;95899.41;;;15.08;62.22
40992;BME280;29633;49.168;9.848;2023-04-15T09:29:05;95906.19;;;15.17;62.16
40992;BME280;29633;49.168;9.848;2023-04-15T09:31:31;95902.88;;;15.23;62.10
40992;BME280;29633;49.168;9.848;2023-04-15T09:33:57;95904.81;;;15.29;62.13
40992;BME280;29633;49.168;9.848;2023-04-15T09:36:23;95899.25;;;15.32;62.03
40992;BME280;29633;49.168;9.848;2023-04-15T09:38:55;95903.28;;;15.35;62.16
40992;BME280;29633;49.168;9.848;2023-04-15T09:41:21;95910.00;;;15.37;62.24
40992;BME280;29633;49.168;9.848;2023-04-15T09:43:47;95915.84;;;15.39;62.10
40992;BME280;29633;49.168;9.848;2023-04-15T09:46:13;95909.63;;;15.40;62.27
40992;BME280;29633;49.168;9.848;2023-04-15T09:48:39;95912.38;;;15.47;62.04
40992;BME280;29633;49.168;9.848;2023-04-15T09:51:04;95906.00;;;15.49;62.26
40992;BME280;29633;49.168;9.848;2023-04-15T09:53:33;95917.28;;;15.50;62.15
40992;BME280;29633;49.168;9.848;2023-04-15T09:55:59;95911.53;;;15.54;62.07
40992;BME280;29633;49.168;9.848;2023-04-15T09:58:33;95906.56;;;15.59;62.35
40992;BME280;29633;49.168;9.848;2023-04-15T10:01:01;95905.06;;;15.65;62.10
40992;BME280;29633;49.168;9.848;2023-04-15T10:03:28;95913.03;;;15.71;61.98
40992;BME280;29633;49.168;9.848;2023-04-15T10:05:57;95918.72;;;15.75;62.00
40992;BME280;29633;49.168;9.848;2023-04-15T10:08:26;95919.38;;;15.77;62.22
40992;BME280;29633;49.168;9.848;2023-04-15T10:10:52;95918.81;;;15.82;61.99
40992;BME280;29633;49.168;9.848;2023-04-15T10:13:19;95914.69;;;15.87;62.11
40992;BME280;29633;49.168;9.848;2023-04-15T10:15:57;95923.81;;;15.91;62.06
40992;BME280;29633;49.168;9.848;2023-04-15T10:18:25;95919.03;;;15.95;61.99
40992;BME280;29633;49.168;9.848;2023-04-15T10:20:52;95916.06;;;15.98;61.76
40992;BME280;29633;49.168;9.848;2023-04-15T10:23:18;95912.00;;;15.95;61.84
40992;BME280;29633;49.168;9.848;2023-04-15T10:25:48;95918.91;;;15.88;62.06
40992;BME280;29633;49.168;9.848;2023-04-15T10:28:16;95911.63;;;15.84;62.21
40992;BME280;29633;49.168;9.848;2023-04-15T10:30:42;95918.66;;;15.83;62.24
40992;BME280;29633;49.168;9.848;2023-04-15T10:33:08;95916.50;;;15.87;62.08
40992;BME280;29633;49.168;9.848;2023-04-15T10:35:35;95917.94;;;15.89;62.15
40992;BME280;29633;49.168;9.848;2023-04-15T10:38:01;95920.38;;;15.91;62.19
40992;BME280;29633;49.168;9.848;2023-04-15T10:40:31;95927.66;;;15.95;61.92
40992;BME280;29633;49.168;9.848;2023-04-15T10:43:01;95919.03;;;15.95;62.17
40992;BME280;29633;49.168;9.848;2023-04-15T10:45:30;95917.50;;;16.00;62.29
40992;BME280;29633;49.168;9.848;2023-04-15T10:47:57;95918.31;;;16.01;62.15
40992;BME280;29633;49.168;9.848;2023-04-15T10:50:26;95919.16;;;16.01;62.32
40992;BME280;29633;49.168;9.848;2023-04-15T10:52:52;95923.19;;;16.04;62.25
40992;BME280;29633;49.168;9.848;2023-04-15T10:55:21;95926.25;;;16.07;62.18
40992;BME280;29633;49.168;9.848;2023-04-15T10:57:52;95926.72;;;16.11;62.12
40992;BME280;29633;49.168;9.848;2023-04-15T11:00:19;95930.00;;;16.13;61.99
40992;BME280;29633;49.168;9.848;2023-04-15T11:02:52;95929.63;;;16.16;61.92
40992;BME280;29633;49.168;9.848;2023-04-15T11:05:19;95935.31;;;16.19;61.91
40992;BME280;29633;49.168;9.848;2023-04-15T11:12:45;95923.06;;;16.35;61.68
40992;BME280;29633;49.168;9.848;2023-04-15T11:15:43;95930.03;;;16.42;61.53
40992;BME280;29633;49.168;9.848;2023-04-15T11:18:15;95932.28;;;16.45;61.47
40992;BME280;29633;49.168;9.848;2023-04-15T11:20:44;95935.16;;;16.50;61.24
40992;BME280;29633;49.168;9.848;2023-04-15T11:23:12;95932.66;;;16.57;61.26
40992;BME280;29633;49.168;9.848;2023-04-15T11:25:38;95939.34;;;16.59;61.23
40992;BME280;29633;49.168;9.848;2023-04-15T11:28:04;95937.09;;;16.56;60.87
40992;BME280;29633;49.168;9.848;2023-04-15T11:30:32;95941.50;;;16.56;61.06
40992;BME280;29633;49.168;9.848;2023-04-15T11:33:00;95952.81;;;16.56;61.17
40992;BME280;29633;49.168;9.848;2023-04-15T11:35:26;95950.47;;;16.53;61.15
40992;BME280;29633;49.168;9.848;2023-04-15T11:37:52;95945.81;;;16.49;61.16
40992;BME280;29633;49.168;9.848;2023-04-15T11:40:28;95955.47;;;16.48;61.19
40992;BME280;29633;49.168;9.848;2023-04-15T11:43:07;95959.88;;;16.48;61.08
40992;BME280;29633;49.168;9.848;2023-04-15T11:45:34;95953.81;;;16.47;60.85
40992;BME280;29633;49.168;9.848;2023-04-15T11:48:10;95962.84;;;16.45;61.00
40992;BME280;29633;49.168;9.848;2023-04-15T11:50:37;95957.63;;;16.45;60.86
40992;BME280;29633;49.168;9.848;2023-04-15T11:53:06;95959.41;;;16.44;60.95
40992;BME280;29633;49.168;9.848;2023-04-15T11:55:43;95968.44;;;16.42;60.74
40992;BME280;29633;49.168;9.848;2023-04-15T11:58:12;95970.50;;;16.46;60.59
40992;BME280;29633;49.168;9.848;2023-04-15T12:00:39;95974.31;;;16.44;60.54
40992;BME280;29633;49.168;9.848;2023-04-15T12:03:38;95975.47;;;16.41;60.49
40992;BME280;29633;49.168;9.848;2023-04-15T12:06:23;95983.34;;;16.41;60.32
40992;BME280;29633;49.168;9.848;2023-04-15T12:11:18;95977.13;;;16.42;60.15
40992;BME280;29633;49.168;9.848;2023-04-15T12:13:47;95983.94;;;16.43;60.23
40992;BME280;29633;49.168;9.848;2023-04-15T12:16:18;95981.16;;;16.45;60.29
40992;BME280;29633;49.168;9.848;2023-04-15T12:18:45;95985.22;;;16.47;60.31
40992;BME280;29633;49.168;9.848;2023-04-15T12:21:11;96004.97;;;16.50;59.86
40992;BME280;29633;49.168;9.848;2023-04-15T12:23:47;95996.34;;;16.49;59.94
40992;BME280;29633;49.168;9.848;2023-04-15T12:26:14;95992.00;;;16.42;59.85
40992;BME280;29633;49.168;9.848;2023-04-15T12:28:40;96000.81;;;16.41;60.00
40992;BME280;29633;49.168;9.848;2023-04-15T12:31:08;96003.34;;;16.34;59.87
40992;BME280;29633;49.168;9.848;2023-04-15T12:33:34;96002.53;;;16.34;59.77
40992;BME280;29633;49.168;9.848;2023-04-15T12:36:00;96005.97;;;16.34;59.77
40992;BME280;29633;49.168;9.848;2023-04-15T12:38:26;96009.84;;;16.38;59.67
40992;BME280;29633;49.168;9.848;2023-04-15T12:40:52;96013.81;;;16.34;59.80
40992;BME280;29633;49.168;9.848;2023-04-15T12:43:17;96022.00;;;16.31;59.71
40992;BME280;29633;49.168;9.848;2023-04-15T12:45:43;96020.09;;;16.25;59.74
40992;BME280;29633;49.168;9.848;2023-04-15T12:48:09;96027.31;;;16.23;59.70
40992;BME280;29633;49.168;9.848;2023-04-15T12:50:34;96040.72;;;16.20;59.52
40992;BME280;29633;49.168;9.848;2023-04-15T12:53:02;96042.69;;;16.18;59.60
40992;BME280;29633;49.168;9.848;2023-04-15T12:55:28;96046.66;;;16.14;59.53
40992;BME280;29633;49.168;9.848;2023-04-15T12:57:55;96053.03;;;16.11;59.53
40992;BME280;29633;49.168;9.848;2023-04-15T13:00:21;96050.28;;;16.13;59.60
40992;BME280;29633;49.168;9.848;2023-04-15T13:02:47;96054.31;;;16.15;59.43
40992;BME280;29633;49.168;9.848;2023-04-15T13:05:13;96061.50;;;16.13;59.42
40992;BME280;29633;49.168;9.848;2023-04-15T13:07:40;96062.34;;;16.14;59.34
40992;BME280;29633;49.168;9.848;2023-04-15T13:10:06;96062.53;;;16.12;59.42